createdAt,value
2022-09-07T00:00:29.201Z,21.79
2022-09-07T00:01:29.214Z,21.81
2022-09-07T00:02:29.192Z,21.82
2022-09-07T00:03:29.250Z,21.86
2022-09-07T00:04:29.769Z,21.86
2022-09-07T00:05:31.682Z,21.90
2022-09-07T00:06:29.138Z,21.85
2022-09-07T00:07:29.152Z,21.99
2022-09-07T00:08:29.189Z,22.02
2022-09-07T00:09:29.103Z,21.98
2022-09-07T00:10:29.081Z,22.08
2022-09-07T00:11:29.083Z,22.08
2022-09-07T00:12:29.669Z,22.14
2022-09-07T00:13:29.204Z,22.14
2022-09-07T00:14:29.042Z,22.14
2022-09-07T00:15:29.049Z,21.99
2022-09-07T00:16:29.124Z,22.08
2022-09-07T00:17:29.689Z,22.12
2022-09-07T00:18:29.789Z,22.08
2022-09-07T00:19:29.208Z,21.99
2022-09-07T00:20:28.973Z,22.05
2022-09-07T00:21:28.976Z,21.98
2022-09-07T00:22:29.682Z,21.91
2022-09-07T00:23:28.950Z,21.74
2022-09-07T00:24:28.955Z,21.59
2022-09-07T00:25:31.765Z,21.46
2022-09-07T00:26:31.674Z,21.33
2022-09-07T00:27:28.900Z,21.52
2022-09-07T00:28:28.985Z,21.68
2022-09-07T00:29:28.901Z,21.85
2022-09-07T00:30:31.679Z,22.14
2022-09-07T00:31:28.869Z,22.20
2022-09-07T00:32:28.845Z,22.31
2022-09-07T00:33:28.834Z,22.23
2022-09-07T00:34:28.819Z,22.17
2022-09-07T00:35:28.835Z,21.98
2022-09-07T00:36:28.805Z,21.79
2022-09-07T00:37:28.799Z,21.63
2022-09-07T00:38:28.951Z,21.40
2022-09-07T00:39:31.723Z,21.36
2022-09-07T00:40:28.755Z,21.28
2022-09-07T00:41:28.746Z,21.30
2022-09-07T00:42:28.737Z,21.26
2022-09-07T00:43:28.727Z,21.12
2022-09-07T00:44:28.731Z,21.06
2022-09-07T00:45:28.710Z,21.11
2022-09-07T00:46:28.787Z,21.08
2022-09-07T00:47:28.685Z,21.01
2022-09-07T00:48:29.182Z,20.96
2022-09-07T00:49:28.660Z,20.88
2022-09-07T00:50:28.655Z,20.94
2022-09-07T00:51:28.665Z,20.78
2022-09-07T00:52:28.630Z,20.73
2022-09-07T00:53:29.175Z,20.76
2022-09-07T00:54:29.188Z,20.81
2022-09-07T00:55:28.608Z,20.81
2022-09-07T00:56:28.583Z,20.81
2022-09-07T00:57:31.181Z,20.81
2022-09-07T00:58:28.579Z,20.79
2022-09-07T00:59:29.197Z,20.81
2022-09-07T01:00:28.551Z,20.83
2022-09-07T01:01:28.718Z,20.72
2022-09-07T01:02:28.611Z,20.73
2022-09-07T01:03:29.184Z,20.61
2022-09-07T01:04:29.196Z,20.66
2022-09-07T01:05:29.190Z,20.63
2022-09-07T01:06:28.476Z,20.56
2022-09-07T01:07:28.477Z,20.51
2022-09-07T01:08:28.521Z,20.46
2022-09-07T01:09:28.433Z,20.54
2022-09-07T01:10:29.203Z,20.50
2022-09-07T01:11:28.432Z,20.54
2022-09-07T01:12:28.402Z,20.48
2022-09-07T01:13:28.400Z,20.48
2022-09-07T01:14:35.180Z,20.46
2022-09-07T01:15:28.364Z,20.51
2022-09-07T01:16:28.404Z,20.50
2022-09-07T01:17:28.723Z,20.51
2022-09-07T01:18:28.361Z,20.51
2022-09-07T01:19:28.342Z,20.54
2022-09-07T01:20:28.308Z,20.58
2022-09-07T01:21:29.194Z,20.53
2022-09-07T01:22:28.291Z,20.51
2022-09-07T01:23:30.272Z,20.54
2022-09-07T01:24:28.282Z,20.48
2022-09-07T01:25:28.260Z,20.50
2022-09-07T01:26:28.270Z,20.50
2022-09-07T01:27:31.194Z,20.51
2022-09-07T01:28:28.300Z,20.42
2022-09-07T01:29:28.210Z,20.41
2022-09-07T01:30:28.225Z,20.41
2022-09-07T01:31:28.733Z,20.50
2022-09-07T01:32:28.279Z,20.41
2022-09-07T01:33:28.696Z,20.37
2022-09-07T01:34:34.691Z,20.40
2022-09-07T01:35:34.712Z,20.35
2022-09-07T01:36:28.148Z,20.37
2022-09-07T01:37:28.121Z,20.26
2022-09-07T01:38:28.205Z,20.22
2022-09-07T01:39:28.133Z,20.19
2022-09-07T01:40:28.687Z,20.13
2022-09-07T01:41:28.087Z,20.07
2022-09-07T01:42:28.187Z,19.98
2022-09-07T01:43:28.052Z,20.04
2022-09-07T01:44:28.044Z,19.94
2022-09-07T01:45:28.034Z,19.94
2022-09-07T01:46:28.795Z,19.87
2022-09-07T01:47:28.025Z,19.83
2022-09-07T01:48:27.995Z,19.68
2022-09-07T01:49:28.005Z,19.75
2022-09-07T01:50:27.970Z,19.65
2022-09-07T01:51:27.963Z,19.64
2022-09-07T01:52:27.946Z,19.46
2022-09-07T01:53:27.935Z,19.57
2022-09-07T01:54:27.937Z,19.58
2022-09-07T01:55:27.910Z,19.58
2022-09-07T01:56:27.916Z,19.53
2022-09-07T01:57:27.914Z,19.49
2022-09-07T01:58:27.888Z,19.46
2022-09-07T01:59:27.865Z,19.45
2022-09-07T02:00:27.858Z,19.46
2022-09-07T02:01:27.875Z,19.39
2022-09-07T02:02:30.777Z,19.45
2022-09-07T02:03:34.697Z,19.46
2022-09-07T02:04:27.833Z,19.47
2022-09-07T02:05:27.807Z,19.38
2022-09-07T02:06:27.795Z,19.46
2022-09-07T02:07:27.784Z,19.45
2022-09-07T02:08:27.773Z,19.42
2022-09-07T02:09:27.775Z,19.43
2022-09-07T02:10:27.747Z,19.42
2022-09-07T02:11:27.738Z,19.38
2022-09-07T02:12:27.721Z,19.35
2022-09-07T02:13:27.724Z,19.49
2022-09-07T02:14:27.727Z,19.47
2022-09-07T02:15:27.768Z,19.55
2022-09-07T02:16:27.678Z,19.58
2022-09-07T02:17:27.688Z,19.62
2022-09-07T02:18:27.687Z,19.45
2022-09-07T02:19:27.663Z,19.46
2022-09-07T02:20:27.645Z,19.40
2022-09-07T02:21:27.630Z,19.35
2022-09-07T02:22:27.720Z,19.43
2022-09-07T02:23:27.613Z,19.35
2022-09-07T02:24:27.594Z,19.30
2022-09-07T02:25:27.587Z,19.31
2022-09-07T02:26:27.593Z,19.27
2022-09-07T02:27:27.571Z,19.20
2022-09-07T02:28:27.640Z,19.27
2022-09-07T02:29:30.909Z,19.31
2022-09-07T02:30:27.544Z,19.23
2022-09-07T02:31:27.598Z,19.30
2022-09-07T02:32:28.223Z,19.20
2022-09-07T02:33:27.501Z,19.20
2022-09-07T02:34:27.494Z,19.16
2022-09-07T02:35:27.493Z,19.17
2022-09-07T02:36:27.467Z,19.21
2022-09-07T02:37:27.587Z,19.16
2022-09-07T02:38:27.515Z,19.16
2022-09-07T02:39:27.474Z,19.20
2022-09-07T02:40:28.225Z,19.24
2022-09-07T02:41:27.414Z,19.27
2022-09-07T02:42:27.405Z,19.27
2022-09-07T02:43:27.433Z,19.24
2022-09-07T02:44:27.381Z,19.16
2022-09-07T02:45:27.375Z,19.23
2022-09-07T02:46:27.408Z,19.23
2022-09-07T02:47:27.457Z,19.23
2022-09-07T02:48:27.375Z,19.25
2022-09-07T02:49:27.733Z,19.30
2022-09-07T02:50:27.317Z,19.27
2022-09-07T02:51:27.314Z,19.21
2022-09-07T02:52:27.314Z,19.17
2022-09-07T02:53:27.290Z,19.17
2022-09-07T02:54:27.277Z,19.24
2022-09-07T02:55:28.223Z,19.23
2022-09-07T02:56:30.203Z,19.13
2022-09-07T02:57:27.258Z,19.20
2022-09-07T02:58:27.330Z,19.20
2022-09-07T02:59:27.233Z,19.15
2022-09-07T03:00:27.209Z,19.16
2022-09-07T03:01:27.219Z,19.10
2022-09-07T03:02:27.232Z,18.93
2022-09-07T03:03:27.176Z,19.01
2022-09-07T03:04:27.200Z,18.94
2022-09-07T03:05:27.149Z,18.76
2022-09-07T03:06:27.155Z,18.83
2022-09-07T03:07:27.137Z,18.74
2022-09-07T03:08:27.163Z,18.64
2022-09-07T03:09:29.705Z,18.66
2022-09-07T03:10:27.140Z,18.68
2022-09-07T03:11:27.087Z,18.71
2022-09-07T03:12:27.238Z,18.69
2022-09-07T03:13:27.069Z,18.78
2022-09-07T03:14:27.717Z,18.65
2022-09-07T03:15:27.799Z,18.75
2022-09-07T03:16:27.036Z,18.78
2022-09-07T03:17:27.044Z,18.74
2022-09-07T03:18:27.080Z,18.79
2022-09-07T03:19:26.999Z,18.79
2022-09-07T03:20:27.001Z,18.75
2022-09-07T03:21:26.983Z,18.82
2022-09-07T03:22:26.967Z,18.76
2022-09-07T03:23:27.242Z,18.75
2022-09-07T03:24:29.711Z,18.78
2022-09-07T03:25:26.954Z,18.69
2022-09-07T03:26:26.926Z,18.71
2022-09-07T03:27:29.712Z,18.65
2022-09-07T03:28:26.911Z,18.78
2022-09-07T03:29:26.893Z,18.65
2022-09-07T03:30:26.901Z,18.74
2022-09-07T03:31:26.919Z,18.64
2022-09-07T03:32:26.851Z,18.60
2022-09-07T03:33:26.839Z,18.60
2022-09-07T03:34:26.840Z,18.60
2022-09-07T03:35:26.819Z,18.69
2022-09-07T03:36:26.832Z,18.64
2022-09-07T03:37:26.799Z,18.65
2022-09-07T03:38:26.854Z,18.69
2022-09-07T03:39:27.788Z,18.59
2022-09-07T03:40:26.786Z,18.51
2022-09-07T03:41:26.765Z,18.57
2022-09-07T03:42:26.749Z,18.56
2022-09-07T03:43:26.733Z,18.56
2022-09-07T03:44:27.710Z,18.53
2022-09-07T03:45:26.711Z,18.42
2022-09-07T03:46:26.784Z,18.36
2022-09-07T03:47:26.695Z,18.31
2022-09-07T03:48:26.723Z,18.35
2022-09-07T03:49:26.672Z,18.35
2022-09-07T03:50:26.665Z,18.28
2022-09-07T03:51:26.638Z,18.31
2022-09-07T03:52:26.654Z,18.29
2022-09-07T03:53:26.638Z,18.25
2022-09-07T03:54:26.621Z,18.31
2022-09-07T03:55:26.592Z,18.25
2022-09-07T03:56:29.229Z,18.29
2022-09-07T03:57:26.572Z,18.25
2022-09-07T03:58:26.587Z,18.26
2022-09-07T03:59:26.556Z,18.13
2022-09-07T04:00:27.231Z,18.16
2022-09-07T04:01:26.606Z,18.14
2022-09-07T04:02:26.558Z,18.13
2022-09-07T04:03:26.556Z,18.26
2022-09-07T04:04:26.501Z,18.19
2022-09-07T04:05:26.583Z,18.19
2022-09-07T04:06:26.476Z,18.19
2022-09-07T04:07:26.467Z,18.19
2022-09-07T04:08:26.458Z,18.17
2022-09-07T04:09:26.463Z,18.16
2022-09-07T04:10:26.434Z,17.95
2022-09-07T04:11:26.420Z,17.94
2022-09-07T04:12:26.400Z,17.87
2022-09-07T04:13:26.390Z,17.87
2022-09-07T04:14:26.516Z,17.77
2022-09-07T04:15:26.375Z,17.77
2022-09-07T04:16:26.428Z,17.83
2022-09-07T04:17:26.350Z,17.86
2022-09-07T04:18:26.342Z,17.86
2022-09-07T04:19:26.345Z,17.96
2022-09-07T04:20:26.318Z,17.96
2022-09-07T04:21:26.304Z,17.94
2022-09-07T04:22:26.342Z,17.99
2022-09-07T04:23:26.307Z,17.99
2022-09-07T04:24:26.285Z,17.94
2022-09-07T04:25:26.262Z,17.89
2022-09-07T04:26:26.265Z,17.91
2022-09-07T04:27:26.262Z,17.91
2022-09-07T04:28:26.228Z,17.92
2022-09-07T04:29:26.223Z,17.87
2022-09-07T04:30:26.239Z,17.89
2022-09-07T04:31:26.262Z,17.94
2022-09-07T04:32:26.183Z,17.96
2022-09-07T04:33:26.186Z,17.95
2022-09-07T04:34:26.184Z,17.89
2022-09-07T04:35:26.166Z,17.96
2022-09-07T04:36:26.142Z,17.92
2022-09-07T04:37:26.154Z,17.91
2022-09-07T04:38:26.151Z,17.73
2022-09-07T04:39:26.131Z,17.57
2022-09-07T04:40:26.099Z,17.57
2022-09-07T04:41:26.255Z,17.63
2022-09-07T04:42:26.119Z,17.58
2022-09-07T04:43:26.109Z,17.70
2022-09-07T04:44:26.046Z,17.68
2022-09-07T04:45:26.062Z,17.68
2022-09-07T04:46:26.068Z,17.68
2022-09-07T04:47:26.036Z,17.63
2022-09-07T04:48:26.007Z,17.68
2022-09-07T04:49:26.006Z,17.68
2022-09-07T04:50:26.754Z,17.68
2022-09-07T04:51:25.986Z,17.62
2022-09-07T04:52:26.007Z,17.63
2022-09-07T04:53:25.949Z,17.62
2022-09-07T04:54:25.953Z,17.68
2022-09-07T04:55:25.923Z,17.60
2022-09-07T04:56:25.925Z,17.58
2022-09-07T04:57:25.930Z,17.53
2022-09-07T04:58:25.898Z,17.62
2022-09-07T04:59:26.733Z,17.57
2022-09-07T05:00:25.873Z,17.57
2022-09-07T05:01:26.131Z,17.62
2022-09-07T05:02:26.312Z,17.68
2022-09-07T05:03:25.982Z,17.62
2022-09-07T05:04:25.853Z,17.70
2022-09-07T05:05:26.072Z,17.73
2022-09-07T05:06:25.803Z,17.65
2022-09-07T05:07:26.113Z,17.66
2022-09-07T05:08:25.780Z,17.68
2022-09-07T05:09:25.876Z,17.66
2022-09-07T05:10:25.839Z,17.68
2022-09-07T05:11:29.131Z,17.66
2022-09-07T05:12:25.762Z,17.62
2022-09-07T05:13:25.729Z,17.66
2022-09-07T05:14:25.720Z,17.68
2022-09-07T05:15:25.731Z,17.66
2022-09-07T05:16:25.797Z,17.66
2022-09-07T05:17:25.678Z,17.66
2022-09-07T05:18:25.964Z,17.62
2022-09-07T05:19:25.669Z,17.62
2022-09-07T05:20:25.746Z,17.63
2022-09-07T05:21:25.667Z,17.57
2022-09-07T05:22:25.626Z,17.51
2022-09-07T05:23:25.616Z,17.42
2022-09-07T05:24:25.721Z,17.27
2022-09-07T05:25:25.592Z,17.22
2022-09-07T05:26:25.847Z,17.25
2022-09-07T05:27:26.228Z,17.33
2022-09-07T05:28:25.751Z,17.35
2022-09-07T05:31:26.554Z,17.25
2022-09-07T05:32:25.737Z,17.27
2022-09-07T05:34:30.077Z,17.28
2022-09-07T05:35:25.489Z,17.45
2022-09-07T05:36:25.603Z,17.43
2022-09-07T05:37:25.489Z,17.51
2022-09-07T05:38:25.710Z,17.39
2022-09-07T05:39:25.571Z,17.43
2022-09-07T05:40:25.423Z,17.42
2022-09-07T05:41:25.418Z,17.54
2022-09-07T05:42:25.442Z,17.49
2022-09-07T05:43:25.417Z,17.60
2022-09-07T05:45:26.580Z,17.73
2022-09-07T05:46:25.464Z,17.73
2022-09-07T05:47:25.514Z,17.71
2022-09-07T05:48:26.235Z,17.76
2022-09-07T05:49:25.490Z,17.71
2022-09-07T05:50:25.318Z,17.76
2022-09-07T05:51:25.394Z,17.84
2022-09-07T05:52:25.327Z,17.89
2022-09-07T05:53:25.285Z,17.91
2022-09-07T05:54:25.278Z,17.74
2022-09-07T05:55:30.242Z,17.77
2022-09-07T05:56:26.252Z,17.92
2022-09-07T05:57:25.439Z,17.89
2022-09-07T05:58:25.304Z,17.89
2022-09-07T05:59:25.247Z,17.92
2022-09-07T06:00:25.254Z,17.99
2022-09-07T06:01:27.737Z,17.94
2022-09-07T06:02:25.525Z,17.95
2022-09-07T06:03:25.254Z,18.05
2022-09-07T06:04:25.433Z,17.99
2022-09-07T06:05:25.148Z,17.96
2022-09-07T06:06:25.295Z,18.02
2022-09-07T06:07:25.137Z,18.11
2022-09-07T06:08:25.364Z,18.16
2022-09-07T06:09:28.525Z,18.16
2022-09-07T06:11:26.086Z,18.17
2022-09-07T06:12:25.132Z,18.31
2022-09-07T06:13:26.045Z,18.28
2022-09-07T06:14:25.047Z,18.11
2022-09-07T06:15:25.409Z,18.23
2022-09-07T06:16:25.096Z,18.11
2022-09-07T06:17:25.164Z,18.28
2022-09-07T06:18:25.260Z,18.28
2022-09-07T06:19:25.282Z,18.19
2022-09-07T06:20:24.977Z,18.29
2022-09-07T06:21:27.856Z,18.39
2022-09-07T06:22:28.844Z,18.34
2022-09-07T06:23:26.094Z,18.29
2022-09-07T06:24:24.936Z,18.36
2022-09-07T06:25:25.016Z,18.36
2022-09-07T06:26:24.918Z,18.42
2022-09-07T06:27:25.279Z,18.44
2022-09-07T06:28:24.891Z,18.46
2022-09-07T06:29:25.856Z,18.50
2022-09-07T06:30:27.739Z,18.49
2022-09-07T06:31:24.953Z,18.46
2022-09-07T06:33:26.000Z,18.42
2022-09-07T06:34:27.743Z,18.50
2022-09-07T06:35:24.876Z,18.54
2022-09-07T06:36:24.797Z,18.51
2022-09-07T06:37:24.941Z,18.53
2022-09-07T06:38:28.794Z,18.59
2022-09-07T06:39:25.960Z,18.57
2022-09-07T06:40:25.793Z,18.47
2022-09-07T06:42:25.963Z,18.51
2022-09-07T06:43:24.866Z,18.51
2022-09-07T06:44:24.739Z,18.46
2022-09-07T06:45:24.830Z,18.51
2022-09-07T06:47:25.783Z,18.54
2022-09-07T06:48:24.729Z,18.64
2022-09-07T06:49:24.821Z,18.64
2022-09-07T06:50:24.907Z,18.66
2022-09-07T06:51:24.639Z,18.72
2022-09-07T06:52:25.202Z,18.78
2022-09-07T06:53:41.847Z,18.86
2022-09-07T06:55:28.264Z,19.06
2022-09-07T06:56:25.266Z,19.06
2022-09-07T06:57:24.625Z,19.12
2022-09-07T06:58:24.769Z,19.16
2022-09-07T06:59:24.632Z,19.20
2022-09-07T07:00:24.921Z,19.06
2022-09-07T07:01:24.696Z,19.15
2022-09-07T07:02:24.511Z,19.12
2022-09-07T07:03:24.727Z,19.25
2022-09-07T07:04:24.496Z,19.38
2022-09-07T07:05:24.519Z,19.38
2022-09-07T07:06:24.490Z,19.46
2022-09-07T07:07:24.489Z,19.46
2022-09-07T07:08:31.448Z,19.61
2022-09-07T07:09:24.574Z,19.61
2022-09-07T07:10:25.126Z,19.67
2022-09-07T07:11:24.434Z,19.71
2022-09-07T07:12:55.495Z,19.75
2022-09-07T07:13:55.411Z,19.90
2022-09-07T07:14:55.455Z,19.87
2022-09-07T07:15:56.065Z,19.98
2022-09-07T07:16:55.471Z,19.98
2022-09-07T07:17:59.136Z,20.05
2022-09-07T07:18:57.046Z,20.10
2022-09-07T07:19:55.493Z,20.15
2022-09-07T07:20:55.588Z,20.02
2022-09-07T07:22:35.627Z,20.02
2022-09-07T07:22:56.324Z,20.08
2022-09-07T07:24:06.171Z,20.04
2022-09-07T07:24:59.208Z,19.94
2022-09-07T07:25:55.274Z,19.92
2022-09-07T07:26:55.572Z,19.98
2022-09-07T07:29:56.072Z,20.10
2022-09-07T07:30:55.218Z,20.02
2022-09-07T07:31:55.379Z,19.92
2022-09-07T07:32:55.421Z,19.89
2022-09-07T07:33:55.258Z,19.83
2022-09-07T07:34:55.232Z,19.82
2022-09-07T07:35:55.173Z,19.80
2022-09-07T07:36:55.200Z,19.64
2022-09-07T07:41:58.753Z,19.68
2022-09-07T07:42:57.045Z,19.70
2022-09-07T07:43:55.106Z,19.67
2022-09-07T07:45:56.146Z,19.71
2022-09-07T07:46:55.107Z,19.85
2022-09-07T07:47:55.044Z,19.76
2022-09-07T07:48:55.548Z,19.90
2022-09-07T07:50:56.083Z,20.00
2022-09-07T07:53:56.231Z,19.98
2022-09-07T07:54:55.549Z,20.08
2022-09-07T07:55:54.981Z,20.20
2022-09-07T07:56:57.554Z,20.31
2022-09-07T07:57:54.931Z,20.23
2022-09-07T07:58:54.936Z,20.26
2022-09-07T07:59:54.918Z,20.30
2022-09-07T08:00:56.041Z,20.38
2022-09-07T08:01:55.045Z,20.42
2022-09-07T08:02:54.873Z,20.46
2022-09-07T08:04:01.554Z,20.63
2022-09-07T08:04:54.849Z,20.66
2022-09-07T08:05:54.909Z,20.61
2022-09-07T08:06:55.556Z,20.66
2022-09-07T08:07:55.086Z,20.63
2022-09-07T08:08:54.831Z,20.53
2022-09-07T08:09:54.816Z,20.60
2022-09-07T08:10:54.785Z,20.61
2022-09-07T08:11:54.771Z,20.66
2022-09-07T08:12:54.787Z,20.76
2022-09-07T08:13:55.088Z,20.68
2022-09-07T08:14:54.740Z,20.58
2022-09-07T08:15:54.774Z,20.54
2022-09-07T08:16:54.718Z,20.57
2022-09-07T08:17:54.712Z,20.54
2022-09-07T08:18:54.712Z,20.53
2022-09-07T08:19:55.088Z,20.56
2022-09-07T08:20:57.578Z,20.60
2022-09-07T08:21:54.670Z,20.63
2022-09-07T08:22:57.559Z,20.53
2022-09-07T08:23:57.564Z,20.50
2022-09-07T08:24:54.632Z,20.57
2022-09-07T08:25:54.641Z,20.63
2022-09-07T08:26:54.607Z,20.64
2022-09-07T08:27:54.604Z,20.63
2022-09-07T08:28:54.583Z,20.64
2022-09-07T08:29:54.571Z,20.81
2022-09-07T08:30:54.546Z,20.94
2022-09-07T08:31:54.685Z,20.98
2022-09-07T08:32:54.538Z,20.91
2022-09-07T08:34:09.056Z,20.90
2022-09-07T08:34:57.058Z,20.81
2022-09-07T08:35:54.502Z,20.83
2022-09-07T08:36:54.755Z,20.73
2022-09-07T08:37:55.069Z,20.73
2022-09-07T08:39:01.063Z,20.75
2022-09-07T08:39:54.571Z,20.90
2022-09-07T08:40:54.445Z,21.00
2022-09-07T08:41:54.436Z,20.93
2022-09-07T08:42:55.073Z,20.96
2022-09-07T08:43:54.430Z,21.00
2022-09-07T08:44:54.445Z,20.94
2022-09-07T08:45:57.062Z,20.96
2022-09-07T08:46:54.451Z,21.15
2022-09-07T08:47:54.372Z,21.19
2022-09-07T08:48:55.071Z,21.13
2022-09-07T08:49:54.370Z,21.13
2022-09-07T08:50:55.071Z,21.08
2022-09-07T08:51:54.326Z,21.01
2022-09-07T08:52:54.331Z,20.96
2022-09-07T08:53:54.303Z,21.01
2022-09-07T08:54:54.588Z,21.08
2022-09-07T08:55:54.300Z,21.00
2022-09-07T08:57:55.263Z,20.96
2022-09-07T08:58:54.297Z,21.01
2022-09-07T08:59:57.061Z,21.06
2022-09-07T09:01:30.713Z,21.19
2022-09-07T09:05:56.196Z,21.08
2022-09-07T09:06:54.278Z,21.08
2022-09-07T09:07:54.152Z,21.16
2022-09-07T09:08:54.159Z,21.19
2022-09-07T09:09:54.148Z,21.05
2022-09-07T09:10:54.130Z,21.15
2022-09-07T09:11:54.110Z,21.15
2022-09-07T09:12:54.100Z,21.15
2022-09-07T09:13:54.088Z,21.31
2022-09-07T09:14:54.074Z,21.48
2022-09-07T09:15:54.143Z,21.49
2022-09-07T09:16:54.063Z,21.48
2022-09-07T09:17:54.044Z,21.43
2022-09-07T09:18:54.022Z,21.19
2022-09-07T09:19:54.026Z,21.21
2022-09-07T09:20:54.569Z,21.09
2022-09-07T09:21:54.017Z,21.12
2022-09-07T09:23:08.580Z,21.01
2022-09-07T09:23:53.975Z,21.03
2022-09-07T09:24:54.591Z,21.06
2022-09-07T09:26:00.571Z,21.08
2022-09-07T09:26:54.100Z,21.15
2022-09-07T09:28:08.575Z,21.33
2022-09-07T09:28:55.313Z,21.28
2022-09-07T09:30:00.589Z,21.37
2022-09-07T09:30:53.978Z,21.42
2022-09-07T09:31:53.897Z,21.49
2022-09-07T09:32:53.902Z,21.53
2022-09-07T09:33:54.558Z,21.58
2022-09-07T09:34:53.854Z,21.51
2022-09-07T09:35:54.573Z,21.56
2022-09-07T09:36:53.838Z,21.52
2022-09-07T09:37:53.825Z,21.59
2022-09-07T09:38:53.862Z,21.74
2022-09-07T09:39:55.518Z,21.79
2022-09-07T09:40:53.803Z,21.86
2022-09-07T09:41:53.793Z,21.85
2022-09-07T09:42:53.787Z,22.01
2022-09-07T09:43:53.754Z,21.96
2022-09-07T09:44:53.770Z,21.85
2022-09-07T09:47:55.630Z,21.96
2022-09-07T09:48:53.710Z,22.01
2022-09-07T09:49:56.585Z,22.09
2022-09-07T09:52:54.674Z,22.26
2022-09-07T09:53:53.646Z,22.20
2022-09-07T09:54:55.845Z,22.09
2022-09-07T09:55:53.616Z,22.11
2022-09-07T09:57:00.594Z,22.01
2022-09-07T09:59:58.362Z,22.15
2022-09-07T10:01:26.668Z,22.24
2022-09-07T10:04:53.524Z,22.30
2022-09-07T10:05:57.139Z,22.26
2022-09-07T10:06:53.520Z,22.26
2022-09-07T10:07:54.091Z,22.12
2022-09-07T10:08:54.088Z,22.19
2022-09-07T10:09:53.472Z,22.31
2022-09-07T10:10:53.473Z,22.29
2022-09-07T10:12:11.361Z,22.30
2022-09-07T10:12:54.461Z,22.42
2022-09-07T10:13:54.076Z,22.63
2022-09-07T10:14:54.092Z,22.59
2022-09-07T10:15:53.512Z,22.69
2022-09-07T10:16:53.415Z,22.82
2022-09-07T10:17:54.076Z,22.85
2022-09-07T10:18:54.083Z,22.94
2022-09-07T10:19:58.159Z,22.79
2022-09-07T10:20:53.338Z,22.91
2022-09-07T10:21:54.087Z,23.06
2022-09-07T10:22:53.342Z,23.19
2022-09-07T10:23:53.312Z,23.25
2022-09-07T10:24:53.304Z,23.07
2022-09-07T10:25:56.088Z,23.11
2022-09-07T10:26:56.075Z,23.07
2022-09-07T10:27:53.300Z,23.04
2022-09-07T10:29:08.054Z,23.23
2022-09-07T10:29:54.254Z,23.04
2022-09-07T10:30:54.153Z,23.21
2022-09-07T10:31:53.225Z,23.26
2022-09-07T10:32:53.237Z,23.50
2022-09-07T10:34:54.193Z,23.75
2022-09-07T10:35:53.179Z,23.89
2022-09-07T10:36:54.088Z,23.97
2022-09-07T10:37:53.628Z,23.79
2022-09-07T10:38:53.154Z,23.77
2022-09-07T10:39:58.191Z,23.63
2022-09-07T10:40:54.131Z,23.44
2022-09-07T10:41:53.114Z,23.42
2022-09-07T10:43:54.104Z,23.19
2022-09-07T10:44:53.126Z,22.96
2022-09-07T10:45:53.130Z,22.88
2022-09-07T10:46:57.112Z,23.03
2022-09-07T10:47:53.583Z,23.06
2022-09-07T10:48:53.069Z,22.91
2022-09-07T10:50:22.922Z,23.01
2022-09-07T10:50:54.019Z,22.99
2022-09-07T10:51:53.014Z,23.12
2022-09-07T10:52:53.587Z,22.85
2022-09-07T10:54:53.989Z,22.91
2022-09-07T10:55:52.987Z,22.99
2022-09-07T10:56:53.586Z,22.69
2022-09-07T10:57:54.645Z,22.61
2022-09-07T10:59:08.375Z,22.30
2022-09-07T11:00:10.089Z,22.38
2022-09-07T11:00:54.131Z,22.35
2022-09-07T11:01:53.018Z,22.33
2022-09-07T11:03:53.916Z,22.46
2022-09-07T11:04:52.875Z,22.56
2022-09-07T11:05:53.129Z,22.76
2022-09-07T11:06:52.848Z,22.79
2022-09-07T11:07:52.857Z,22.99
2022-09-07T11:09:53.840Z,23.14
2022-09-07T11:10:52.840Z,23.41
2022-09-07T11:12:08.161Z,23.31
2022-09-07T11:12:53.819Z,23.52
2022-09-07T11:14:11.849Z,23.64
2022-09-07T11:14:53.818Z,23.64
2022-09-07T11:15:52.837Z,23.64
2022-09-07T11:16:52.926Z,23.59
2022-09-07T11:17:53.411Z,23.59
2022-09-07T11:18:52.965Z,23.38
2022-09-07T11:19:52.714Z,23.49
2022-09-07T11:20:52.702Z,23.35
2022-09-07T11:21:59.770Z,23.32
2022-09-07T11:22:59.130Z,23.00
2022-09-07T11:23:52.670Z,22.99
2022-09-07T11:25:53.649Z,22.75
2022-09-07T11:26:52.631Z,22.60
2022-09-07T11:27:52.655Z,22.75
2022-09-07T11:29:53.617Z,23.01
2022-09-07T11:30:56.618Z,23.21
2022-09-07T11:31:53.581Z,23.32
2022-09-07T11:32:52.791Z,23.16
2022-09-07T11:34:53.587Z,23.39
2022-09-07T11:35:52.559Z,23.41
2022-09-07T11:36:52.534Z,23.52
2022-09-07T11:37:52.568Z,23.57
2022-09-07T11:38:52.613Z,23.45
2022-09-07T11:39:52.578Z,23.34
2022-09-07T11:40:52.493Z,23.49
2022-09-07T11:41:55.096Z,23.69
2022-09-07T11:42:52.489Z,23.69
2022-09-07T11:43:52.450Z,23.57
2022-09-07T11:44:59.100Z,23.50
2022-09-07T11:45:55.202Z,23.44
2022-09-07T11:46:52.427Z,23.39
2022-09-07T11:47:52.453Z,23.31
2022-09-07T11:48:52.446Z,23.25
2022-09-07T11:49:55.049Z,23.35
2022-09-07T11:50:53.631Z,23.37
2022-09-07T11:51:53.904Z,23.41
2022-09-07T11:52:53.835Z,23.31
2022-09-07T11:53:55.110Z,23.23
2022-09-07T11:54:52.429Z,23.41
2022-09-07T11:55:52.354Z,23.57
2022-09-07T11:56:52.330Z,23.59
2022-09-07T11:57:55.500Z,23.53
2022-09-07T11:58:52.284Z,23.29
2022-09-07T11:59:52.288Z,23.25
2022-09-07T12:00:52.644Z,23.26
2022-09-07T12:01:53.307Z,23.50
2022-09-07T12:03:00.725Z,23.54
2022-09-07T12:03:53.426Z,23.56
2022-09-07T12:04:56.124Z,23.53
2022-09-07T12:05:52.211Z,23.71
2022-09-07T12:06:52.237Z,23.92
2022-09-07T12:07:52.192Z,24.16
2022-09-07T12:08:52.178Z,24.41
2022-09-07T12:09:52.171Z,24.51
2022-09-07T12:10:52.164Z,24.60
2022-09-07T12:11:52.169Z,24.60
2022-09-07T12:12:52.183Z,24.68
2022-09-07T12:13:52.134Z,24.75
2022-09-07T12:14:52.168Z,24.60
2022-09-07T12:15:52.188Z,24.39
2022-09-07T12:16:52.091Z,24.55
2022-09-07T12:17:52.111Z,24.59
2022-09-07T12:18:52.144Z,24.48
2022-09-07T12:19:52.063Z,24.51
2022-09-07T12:20:52.064Z,24.29
2022-09-07T12:21:52.043Z,24.46
2022-09-07T12:22:52.022Z,24.49
2022-09-07T12:23:52.036Z,24.59
2022-09-07T12:24:52.113Z,24.64
2022-09-07T12:25:52.001Z,24.41
2022-09-07T12:26:51.991Z,24.31
2022-09-07T12:27:51.982Z,24.39
2022-09-07T12:28:51.974Z,24.44
2022-09-07T12:29:51.962Z,24.37
2022-09-07T12:30:52.047Z,24.46
2022-09-07T12:32:07.650Z,24.53
2022-09-07T12:32:54.151Z,24.45
2022-09-07T12:33:51.909Z,24.09
2022-09-07T12:34:51.936Z,23.93
2022-09-07T12:35:51.893Z,24.02
2022-09-07T12:36:51.890Z,23.82
2022-09-07T12:37:51.864Z,24.08
2022-09-07T12:38:51.881Z,23.94
2022-09-07T12:39:51.885Z,24.05
2022-09-07T12:40:51.831Z,24.08
2022-09-07T12:42:31.909Z,23.78
2022-09-07T12:42:54.482Z,23.79
2022-09-07T12:43:54.708Z,24.00
2022-09-07T12:44:51.816Z,23.96
2022-09-07T12:45:51.834Z,23.96
2022-09-07T12:46:51.764Z,23.99
2022-09-07T12:47:52.622Z,23.94
2022-09-07T12:48:52.748Z,23.97
2022-09-07T12:49:52.621Z,23.68
2022-09-07T12:50:52.650Z,23.59
2022-09-07T12:52:15.353Z,23.68
2022-09-07T12:52:52.717Z,23.82
2022-09-07T12:53:56.964Z,24.00
2022-09-07T12:55:09.962Z,24.21
2022-09-07T12:57:52.651Z,23.56
2022-09-07T12:58:52.622Z,23.50
2022-09-07T12:59:51.608Z,23.44
2022-09-07T13:00:51.617Z,23.59
2022-09-07T13:01:51.802Z,23.81
2022-09-07T13:02:51.577Z,23.79
2022-09-07T13:03:52.331Z,23.93
2022-09-07T13:04:52.767Z,23.94
2022-09-07T13:05:51.549Z,23.93
2022-09-07T13:07:09.399Z,23.82
2022-09-07T13:07:57.351Z,23.72
2022-09-07T13:08:52.548Z,23.69
2022-09-07T13:09:58.122Z,23.67
2022-09-07T13:10:51.496Z,23.72
2022-09-07T13:11:51.507Z,23.84
2022-09-07T13:12:57.067Z,24.12
2022-09-07T13:14:09.436Z,24.19
2022-09-07T13:14:52.651Z,23.99
2022-09-07T13:15:51.513Z,24.05
2022-09-07T13:17:52.405Z,24.04
2022-09-07T13:18:52.410Z,24.26
2022-09-07T13:19:51.416Z,24.46
2022-09-07T13:20:53.589Z,24.52
2022-09-07T13:21:51.380Z,24.60
2022-09-07T13:22:51.357Z,24.30
2022-09-07T13:23:51.343Z,24.05
2022-09-07T13:24:51.519Z,24.09
2022-09-07T13:25:51.336Z,24.27
2022-09-07T13:26:51.507Z,24.60
2022-09-07T13:27:51.474Z,24.56
2022-09-07T13:28:51.390Z,24.75
2022-09-07T13:29:51.381Z,24.74
2022-09-07T13:30:51.290Z,24.64
2022-09-07T13:31:52.794Z,24.34
2022-09-07T13:33:52.226Z,24.56
2022-09-07T13:34:51.240Z,24.61
2022-09-07T13:35:51.201Z,24.61
2022-09-07T13:36:51.200Z,24.83
2022-09-07T13:37:51.192Z,25.02